Flight Track Log - Related Links

Times and Time Zones

All times are in EDT time to prevent confusion due to time zone crossing. See the AAL1459 flight status page for this flight to view local times or setup timezone preferences in your user account.

Time Position Orientation Groundspeed Altitude Reporting Facility
EDT Latitude Longitude Course Direction KTS MPH feet Rate Location/Type
Thu 07:07:47 PM 41.9660 -87.8830 139° Southeast 173 199 1,900  Level FlightAware ADS-B
Thu 07:08:12 PM 41.9490 -87.8950 208° Southwest 198 228 2,400 1,200 Climbing FlightAware ADS-B
Thu 07:08:42 PM 41.9250 -87.9210 219° Southwest 232 267 3,000 1,400 Climbing FlightAware ADS-B
Thu 07:09:12 PM 41.8980 -87.9520 221° Southwest 263 303 3,800 2,182 Climbing FlightAware ADS-B
Thu 07:09:37 PM 41.8840 -87.9890 243° Southwest 268 308 5,000 2,727 Climbing FlightAware ADS-B
Thu 07:10:07 PM 41.8760 -88.0350 257° West 273 314 6,300 2,400 Climbing FlightAware ADS-B
Thu 07:10:32 PM 41.8750 -88.0790 268° West 283 326 7,200 2,400 Climbing FlightAware ADS-B
Thu 07:11:02 PM 41.8750 -88.1320 270° West 286 329 8,500 2,914 Climbing FlightAware ADS-B
Thu 07:11:42 PM 41.8730 -88.2060 268° West 280 322 10,600 2,753 Climbing FlightAware ADS-B
Thu 07:12:27 PM 41.8650 -88.2840 262° West 289 333 12,400 1,694 Climbing FlightAware ADS-B
Thu 07:13:07 PM 41.8490 -88.3560 253° West 332 382 13,000 1,200 Climbing FlightAware ADS-B
Thu 07:13:52 PM 41.8290 -88.4480 254° West 365 420 14,100 1,906 Climbing FlightAware ADS-B
Thu 07:14:32 PM 41.8090 -88.5330 253° West 372 428 15,700 2,640 Climbing FlightAware ADS-B
Thu 07:15:07 PM 41.7910 -88.6180 254° West 374 430 17,400 2,188 Climbing FlightAware ADS-B
Thu 07:15:57 PM 41.7680 -88.7320 255° West 395 455 18,800 1,933 Climbing FlightAware ADS-B
Thu 07:16:37 PM 41.7460 -88.8210 252° West 397 457 20,300 2,259 Climbing FlightAware ADS-B
Thu 07:17:22 PM 41.7210 -88.9260 252° West 397 457 22,000 2,118 Climbing FlightAware ADS-B
Thu 07:18:02 PM 41.6990 -89.0230 253° West 401 461 23,300 1,760 Climbing FlightAware ADS-B
Thu 07:18:37 PM 41.6820 -89.1000 254° West 405 466 24,200 1,553 Climbing FlightAware ADS-B
Thu 07:19:27 PM 41.6520 -89.2310 253° West 417 480 25,500 1,467 Climbing FlightAware ADS-B
Thu 07:20:07 PM 41.6300 -89.3310 254° West 424 488 26,400 1,271 Climbing FlightAware ADS-B
Thu 07:20:52 PM 41.6030 -89.4460 253° West 432 497 27,300 1,200 Climbing FlightAware ADS-B
Thu 07:21:32 PM 41.5790 -89.5500 253° West 438 504 28,100 1,125 Climbing FlightAware ADS-B
Thu 07:22:12 PM 41.5560 -89.6470 252° West 443 510 28,800 1,129 Climbing FlightAware ADS-B
Thu 07:22:57 PM 41.5290 -89.7650 253° West 447 514 29,700 1,200 Climbing FlightAware ADS-B
Thu 07:23:32 PM 41.5080 -89.8550 253° West 446 513 30,400 1,271 Climbing FlightAware ADS-B
Thu 07:24:22 PM 41.4780 -89.9830 253° West 446 513 31,500 1,333 Climbing FlightAware ADS-B
Thu 07:25:02 PM 41.4510 -90.0950 252° West 442 509 32,400 1,350 Climbing FlightAware ADS-B
Thu 07:25:42 PM 41.4270 -90.1970 253° West 438 504 33,300 1,275 Climbing FlightAware ADS-B
Thu 07:26:22 PM 41.4020 -90.3000 252° West 436 502 34,100 1,129 Climbing FlightAware ADS-B
Thu 07:27:07 PM 41.3760 -90.4100 253° West 433 498 34,900 988 Climbing FlightAware ADS-B
Thu 07:27:47 PM 41.3510 -90.5130 252° West 431 496 35,500 825 Climbing FlightAware ADS-B
Thu 07:28:27 PM 41.3270 -90.6150 253° West 430 495 36,000 353 Climbing FlightAware ADS-B
Thu 07:29:12 PM 41.3090 -90.7350 259° West 429 494 36,000  Level FlightAware ADS-B
Thu 07:29:57 PM 41.2940 -90.8480 260° West 428 493 36,000  Level FlightAware ADS-B
Thu 07:30:37 PM 41.2800 -90.9530 260° West 428 493 36,000  Level FlightAware ADS-B
Thu 07:31:17 PM 41.2660 -91.0580 260° West 427 491 36,000  Level FlightAware ADS-B
Thu 07:32:12 PM 41.2480 -91.1910 260° West 426 490 36,000  Level FlightAware ADS-B
Thu 07:32:57 PM 41.2330 -91.3050 260° West 425 489 36,000  Level FlightAware ADS-B
Thu 07:33:37 PM 41.2180 -91.4160 260° West 420 483 36,000  Level FlightAware ADS-B
Thu 07:34:17 PM 41.2050 -91.5090 260° West 419 482 36,000  Level FlightAware ADS-B
Thu 07:34:57 PM 41.1930 -91.5950 260° West 419 482 36,000  Level FlightAware ADS-B
Thu 07:35:47 PM 41.1770 -91.7030 259° West 419 482 36,000  Level FlightAware ADS-B
Thu 07:36:27 PM 41.2360 -91.8420 299° West 420 483 36,000  Level FlightAware ADS-B
Thu 07:37:07 PM 41.2460 -91.9410 278° West 420 483 36,000  Level FlightAware ADS-B
Thu 07:37:47 PM 41.2540 -92.0280 277° West 420 483 36,000  Level FlightAware ADS-B
Thu 07:38:27 PM 41.2620 -92.1150 277° West 420 483 36,000  Level FlightAware ADS-B
Thu 07:39:12 PM 41.2840 -92.2710 281° West 430 495 36,000  Level FlightAware ADS-B
Thu 07:39:57 PM 41.3000 -92.3870 280° West 429 494 36,000  Level FlightAware ADS-B
Thu 07:40:37 PM 41.3140 -92.4920 280° West 423 487 36,000  Level FlightAware ADS-B
Thu 07:41:22 PM 41.3090 -92.6060 267° West 424 488 36,000  Level FlightAware ADS-B
Thu 07:42:02 PM 41.2990 -92.7150 263° West 422 486 36,000  Level FlightAware ADS-B
Thu 07:42:47 PM 41.2850 -92.8260 261° West 420 483 36,000  Level FlightAware ADS-B
Thu 07:43:27 PM 41.2710 -92.9290 260° West 420 483 36,000  Level FlightAware ADS-B
Thu 07:44:07 PM 41.2570 -93.0310 260° West 421 484 36,000  Level FlightAware ADS-B
Thu 07:44:52 PM 41.2420 -93.1470 260° West 421 484 36,000  Level FlightAware ADS-B
Thu 07:45:32 PM 41.2290 -93.2490 260° West 424 488 36,000  Level FlightAware ADS-B
Thu 07:46:12 PM 41.2150 -93.3510 260° West 426 490 36,000  Level FlightAware ADS-B
Thu 07:46:57 PM 41.2000 -93.4660 260° West 429 494 36,000  Level FlightAware ADS-B
Thu 07:47:37 PM 41.1870 -93.5570 259° West 429 494 36,000  Level FlightAware ADS-B
Thu 07:48:17 PM 41.1740 -93.6450 259° West 429 494 36,000  Level FlightAware ADS-B
Thu 07:48:57 PM 41.1610 -93.7330 259° West 429 494 36,000  Level FlightAware ADS-B
Thu 07:49:37 PM 41.1480 -93.8210 259° West 429 494 36,000  Level FlightAware ADS-B
Thu 07:50:27 PM 41.1320 -93.9300 259° West 429 494 36,000  Level FlightAware ADS-B
Thu 07:51:07 PM 41.1190 -94.0180 259° West 429 494 36,000  Level FlightAware ADS-B
Thu 07:51:47 PM 41.1060 -94.1060 259° West 429 494 36,000  Level FlightAware ADS-B
Thu 07:52:47 PM 41.0910 -94.3650 266° West 429 494 36,000  Level FlightAware ADS-B
Thu 07:53:27 PM 41.0800 -94.4540 261° West 429 494 36,000  Level FlightAware ADS-B
Thu 07:54:07 PM 41.0700 -94.5420 261° West 429 494 36,000  Level FlightAware ADS-B
Thu 07:54:47 PM 41.0590 -94.6310 261° West 429 494 36,000  Level FlightAware ADS-B
Thu 07:55:37 PM 41.0460 -94.7410 261° West 429 494 36,000  Level FlightAware ADS-B
Thu 07:56:17 PM 41.0360 -94.8300 262° West 429 494 36,000  Level FlightAware ADS-B
Thu 07:56:57 PM 41.0250 -94.9180 261° West 429 494 36,000  Level FlightAware ADS-B
Thu 07:57:37 PM 41.0140 -95.0060 261° West 429 494 36,000  Level FlightAware ADS-B
Thu 07:58:27 PM 41.0010 -95.1170 261° West 429 494 36,000  Level FlightAware ADS-B
Thu 07:59:07 PM 40.9910 -95.2050 261° West 429 494 36,000  Level FlightAware ADS-B
Thu 07:59:47 PM 40.9800 -95.2930 261° West 429 494 36,000  Level FlightAware ADS-B
Thu 08:00:27 PM 40.9700 -95.3820 262° West 429 494 36,000  Level FlightAware ADS-B
Thu 08:01:07 PM 40.9590 -95.4700 261° West 429 494 36,000  Level FlightAware ADS-B
Thu 08:01:57 PM 40.9460 -95.5800 261° West 429 494 36,000  Level FlightAware ADS-B
Thu 08:02:33 PM 41.0700 -95.9533 261° West 450 518 36,000  Level Minneapolis Center
Thu 08:03:35 PM 41.0636 -96.1206 267° West 449 517 36,000  Level Minneapolis Center
Thu 08:04:37 PM 41.0569 -96.2875 267° West 449 517 36,000  Level Minneapolis Center
Thu 08:05:51 PM 41.0492 -96.4547 267° West 451 519 36,000  Level Minneapolis Center
Thu 08:06:53 PM 41.0403 -96.6514 267° West 446 513 36,000  Level Minneapolis Center
Thu 08:07:55 PM 41.0303 -96.8453 266° West 440 506 36,000  Level Minneapolis Center
Thu 08:09:09 PM 41.0225 -97.0050 266° West 436 502 36,000  Level Minneapolis Center
Thu 08:10:23 PM 41.0119 -97.1961 266° West 434 499 36,000  Level Minneapolis Center
Thu 08:11:25 PM 41.0014 -97.3792 266° West 431 496 36,000  Level Minneapolis Center
Thu 08:12:27 PM 40.9925 -97.5356 266° West 428 493 36,000  Level Minneapolis Center
Thu 08:13:29 PM 40.9436 -97.7142 250° West 435 501 36,000  Level Minneapolis Center
Thu 08:14:43 PM 40.8892 -97.8586 244° Southwest 437 503 36,000  Level Minneapolis Center
Thu 08:15:45 PM 40.8469 -98.0431 253° West 438 504 36,000  Level Minneapolis Center
Thu 08:16:47 PM 40.8403 -98.2019 267° West 433 498 36,000  Level Minneapolis Center
Thu 08:17:49 PM 40.8311 -98.3575 266° West 427 491 36,000  Level Minneapolis Center
Thu 08:18:51 PM 40.8217 -98.5119 265° West 419 482 36,000  Level Minneapolis Center
Thu 08:19:52 PM 40.8147 -98.6336 266° West 417 480 36,000  Level Minneapolis Center
Thu 08:20:54 PM 40.8042 -98.8125 266° West 413 475 36,000  Level Minneapolis Center
Thu 08:21:56 PM 40.7939 -98.9878 266° West 403 464 36,000  Level Minneapolis Center
Thu 08:22:58 PM 40.7836 -99.1389 265° West 401 461 36,000  Level Minneapolis Center
Thu 08:24:00 PM 40.7747 -99.2864 265° West 401 461 36,000  Level Minneapolis Center
Thu 08:25:02 PM 40.7647 -99.4331 265° West 400 460 36,000  Level Minneapolis Center
Thu 08:26:04 PM 40.7547 -99.5781 265° West 397 457 36,000  Level Minneapolis Center
Thu 08:27:06 PM 40.7453 -99.7236 265° West 398 458 36,000  Level Minneapolis Center
Thu 08:28:08 PM 40.7344 -99.8703 264° West 400 460 36,000  Level Minneapolis Center
Thu 08:29:16 PM 40.7214 -100.0500 265° West 399 459 36,000  Level Denver Center
Thu 08:30:18 PM 40.7111 -100.1931 265° West 408 470 36,000  Level Denver Center
Thu 08:36:04 PM 40.6802 -101.0650 265° West 410 472 36,000  Level FlightAware ADS-B
Thu 08:36:36 PM 40.6884 -101.1450 278° West 412 474 36,000  Level FlightAware ADS-B
Thu 08:37:06 PM 40.6962 -101.2200 278° West 412 474 36,000  Level FlightAware ADS-B
Thu 08:37:36 PM 40.7039 -101.2950 278° West 413 475 36,000  Level FlightAware ADS-B
Thu 08:38:08 PM 40.7120 -101.3730 278° West 415 478 36,000  Level FlightAware ADS-B
Thu 08:38:39 PM 40.7201 -101.4510 278° West 416 479 36,000  Level FlightAware ADS-B
Thu 08:39:10 PM 40.7290 -101.5280 279° West 418 481 36,000  Level FlightAware ADS-B
Thu 08:39:40 PM 40.7376 -101.6060 278° West 425 489 36,000  Level FlightAware ADS-B
Thu 08:40:11 PM 40.7460 -101.6840 278° West 427 491 36,000  Level FlightAware ADS-B
Thu 08:40:41 PM 40.7544 -101.7630 278° West 429 494 36,000  Level FlightAware ADS-B
Thu 08:41:11 PM 40.7633 -101.8410 279° West 432 497 36,000  Level FlightAware ADS-B
Thu 08:41:34 PM 40.7692 -101.9000 278° West 431 496 36,000  Level FlightAware ADS-B
Thu 08:41:49 PM 40.7694 -101.9380 270° West 431 496 36,000  Level FlightAware ADS-B
Thu 08:42:21 PM 40.7616 -102.0210 263° West 432 497 36,000  Level FlightAware ADS-B
Thu 08:42:53 PM 40.7526 -102.1050 262° West 434 499 36,000  Level FlightAware ADS-B
Thu 08:43:24 PM 40.7440 -102.1880 262° West 436 502 36,000  Level FlightAware ADS-B
Thu 08:43:57 PM 40.7352 -102.2730 262° West 434 499 36,000  Level FlightAware ADS-B
Thu 08:44:28 PM 40.7268 -102.3540 262° West 431 496 36,000  Level FlightAware ADS-B
Thu 08:44:58 PM 40.7185 -102.4330 262° West 431 496 36,000  Level FlightAware ADS-B
Thu 08:45:28 PM 40.7103 -102.5110 262° West 430 495 36,000  Level FlightAware ADS-B
Thu 08:45:59 PM 40.7019 -102.5890 262° West 428 493 36,000  Level FlightAware ADS-B
Thu 08:46:29 PM 40.6935 -102.6670 262° West 429 494 36,000  Level FlightAware ADS-B
Thu 08:46:59 PM 40.6850 -102.7450 262° West 428 493 36,000  Level FlightAware ADS-B
Thu 08:47:29 PM 40.6766 -102.8220 262° West 428 493 36,000  Level FlightAware ADS-B
Thu 08:48:00 PM 40.6680 -102.9020 262° West 425 489 36,000  Level FlightAware ADS-B
Thu 08:48:31 PM 40.6594 -102.9790 262° West 423 487 36,000  Level FlightAware ADS-B
Thu 08:49:02 PM 40.6508 -103.0580 262° West 421 484 36,000  Level FlightAware ADS-B
Thu 08:49:32 PM 40.6422 -103.1350 262° West 420 483 36,000  Level FlightAware ADS-B
Thu 08:50:02 PM 40.6337 -103.2110 262° West 423 487 36,000  Level FlightAware ADS-B
Thu 08:50:32 PM 40.6250 -103.2880 262° West 426 490 36,000  Level FlightAware ADS-B
Thu 08:51:03 PM 40.6162 -103.3650 261° West 428 493 36,000  Level FlightAware ADS-B
Thu 08:51:33 PM 40.6072 -103.4430 261° West 429 494 36,000  Level FlightAware ADS-B
Thu 08:52:10 PM 40.5961 -103.5380 261° West 430 495 36,000  Level FlightAware ADS-B
Thu 08:52:40 PM 40.5869 -103.6170 261° West 431 496 36,000  Level FlightAware ADS-B
Thu 08:53:14 PM 40.5767 -103.7050 261° West 431 496 36,000  Level FlightAware ADS-B
Thu 08:53:46 PM 40.5672 -103.7860 261° West 432 497 36,000  Level FlightAware ADS-B
Thu 08:54:16 PM 40.5578 -103.8650 261° West 432 497 36,000  Level FlightAware ADS-B
Thu 08:54:46 PM 40.5486 -103.9440 261° West 436 502 36,000  Level FlightAware ADS-B
Thu 08:55:16 PM 40.5392 -104.0220 261° West 437 503 36,000  Level FlightAware ADS-B
Thu 08:55:47 PM 40.5296 -104.1020 261° West 439 505 36,000  Level FlightAware ADS-B
Thu 08:56:17 PM 40.5199 -104.1820 261° West 442 509 36,000  Level FlightAware ADS-B
Thu 08:56:47 PM 40.5101 -104.2620 261° West 444 511 36,000  Level FlightAware ADS-B
Thu 08:57:18 PM 40.5002 -104.3430 261° West 445 512 36,000  Level FlightAware ADS-B
Thu 08:57:48 PM 40.4903 -104.4230 261° West 445 512 36,000  Level FlightAware ADS-B
Thu 08:58:19 PM 40.4803 -104.5040 261° West 443 510 36,000  Level FlightAware ADS-B
Thu 08:58:49 PM 40.4703 -104.5840 261° West 439 505 36,000  Level FlightAware ADS-B
Thu 08:59:21 PM 40.4600 -104.6670 261° West 437 503 36,000 194 Level FlightAware ADS-B
Thu 08:59:51 PM 40.4500 -104.7460 261° West 437 503 36,200 429 Climbing FlightAware ADS-B
Thu 09:00:31 PM 40.4365 -104.8520 261° West 444 511 36,500 514 Climbing FlightAware ADS-B
Thu 09:01:01 PM 40.4262 -104.9330 261° West 445 512 36,800 885 Climbing FlightAware ADS-B
Thu 09:01:32 PM 40.4159 -105.0130 260° West 440 506 37,400 968 Climbing FlightAware ADS-B
Thu 09:02:03 PM 40.4052 -105.0940 260° West 438 504 37,800 590 Climbing FlightAware ADS-B
Thu 09:02:33 PM 40.3951 -105.1730 260° West 436 502 38,000 200 Climbing FlightAware ADS-B
Thu 09:03:03 PM 40.3848 -105.2520 260° West 435 501 38,000  Level FlightAware ADS-B
Thu 09:03:34 PM 40.3744 -105.3300 260° West 435 501 38,000  Level FlightAware ADS-B
Thu 09:04:07 PM 40.3632 -105.4160 260° West 426 490 38,000  Level FlightAware ADS-B
Thu 09:04:42 PM 40.3520 -105.4980 260° West 426 490 38,000  Level FlightAware ADS-B
Thu 09:04:47 PM 40.3497 -105.5160 260° West 427 491 38,000  Level FlightAware ADS-B
Thu 09:05:22 PM 40.3390 -105.5990 260° West 426 490 38,000  Level FlightAware ADS-B
Thu 09:05:37 PM 40.3322 -105.6450 259° West 427 491 38,000  Level FlightAware ADS-B
Thu 09:06:07 PM 40.3230 -105.7160 260° West 422 486 38,000  Level FlightAware ADS-B
Thu 09:06:16 PM 40.3190 -105.7420 259° West 423 487 38,000  Level FlightAware ADS-B
Thu 09:06:50 PM 40.3076 -105.8270 260° West 425 489 38,000  Level FlightAware ADS-B
Thu 09:07:27 PM 40.2950 -105.9170 260° West 425 489 38,000  Level FlightAware ADS-B
Thu 09:07:43 PM 40.2894 -105.9610 261° West 425 489 38,000  Level FlightAware ADS-B
Thu 09:08:28 PM 40.2735 -106.0770 260° West 427 491 38,000  Level FlightAware ADS-B
Thu 09:09:00 PM 40.2621 -106.1580 260° West 427 491 38,000  Level FlightAware ADS-B
Thu 09:10:17 PM 40.2350 -106.3500 260° West 426 490 38,000  Level FlightAware ADS-B
Thu 09:10:57 PM 40.2220 -106.4430 260° West 428 493 38,000  Level FlightAware ADS-B
Thu 09:11:37 PM 40.2070 -106.5500 260° West 428 493 38,000  Level FlightAware ADS-B
Thu 09:12:37 PM 40.1860 -106.6910 259° West 427 491 38,000  Level FlightAware ADS-B
Thu 09:13:12 PM 40.1730 -106.7860 260° West 426 490 38,000  Level FlightAware ADS-B
Thu 09:13:57 PM 40.1560 -106.8980 259° West 426 490 38,000  Level FlightAware ADS-B
Thu 09:14:42 PM 40.1390 -107.0180 260° West 429 494 38,000  Level FlightAware ADS-B
Thu 09:15:22 PM 40.1240 -107.1210 259° West 425 489 38,000  Level FlightAware ADS-B
Thu 09:16:07 PM 40.1070 -107.2310 259° West 421 484 38,000  Level FlightAware ADS-B
Thu 09:16:47 PM 40.0920 -107.3300 259° West 420 483 38,000  Level FlightAware ADS-B
Thu 09:17:27 PM 40.0770 -107.4290 259° West 424 488 38,000  Level FlightAware ADS-B
Thu 09:18:12 PM 40.0610 -107.5400 259° West 426 490 38,000  Level FlightAware ADS-B
Thu 09:18:52 PM 40.0450 -107.6430 259° West 425 489 38,000  Level FlightAware ADS-B
Thu 09:19:37 PM 40.0270 -107.7580 258° West 425 489 38,000  Level FlightAware ADS-B
Thu 09:20:17 PM 40.0130 -107.8500 259° West 426 490 38,000  Level FlightAware ADS-B
Thu 09:21:02 PM 39.9960 -107.9590 259° West 426 490 38,000  Level FlightAware ADS-B
Thu 09:21:42 PM 39.9790 -108.0650 258° West 425 489 38,000  Level FlightAware ADS-B
Thu 09:22:22 PM 39.9630 -108.1670 258° West 423 487 38,000  Level FlightAware ADS-B
Thu 09:23:02 PM 39.9470 -108.2660 258° West 422 486 38,000  Level FlightAware ADS-B
Thu 09:23:47 PM 39.9300 -108.3780 259° West 421 484 38,000  Level FlightAware ADS-B
Thu 09:24:27 PM 39.9140 -108.4770 258° West 421 484 38,000  Level FlightAware ADS-B
Thu 09:25:12 PM 39.8960 -108.5860 258° West 419 482 38,000  Level FlightAware ADS-B
Thu 09:25:52 PM 39.8790 -108.6890 258° West 418 481 38,000  Level FlightAware ADS-B
Thu 09:26:37 PM 39.8620 -108.7980 259° West 418 481 38,000  Level FlightAware ADS-B
Thu 09:28:12 PM 39.8240 -109.0280 258° West 418 481 38,000  Level FlightAware ADS-B
Thu 09:28:57 PM 39.8050 -109.1420 258° West 415 478 38,000  Level FlightAware ADS-B
Thu 09:29:37 PM 39.7890 -109.2380 258° West 413 475 38,000  Level FlightAware ADS-B
Thu 09:30:17 PM 39.7720 -109.3350 257° West 411 473 38,000  Level FlightAware ADS-B
Thu 09:31:02 PM 39.7540 -109.4420 258° West 410 472 38,000  Level FlightAware ADS-B
Thu 09:32:12 PM 39.7270 -109.6020 258° West 408 470 38,000  Level FlightAware ADS-B
Thu 09:32:52 PM 39.7090 -109.7040 257° West 409 471 38,000  Level FlightAware ADS-B
Thu 09:33:32 PM 39.6930 -109.8010 258° West 410 472 38,000  Level FlightAware ADS-B
Thu 09:34:07 PM 39.6780 -109.8870 257° West 411 473 38,000  Level FlightAware ADS-B
Thu 09:35:27 PM 39.6440 -110.0760 257° West 415 478 38,000  Level FlightAware ADS-B
Thu 09:36:07 PM 39.6270 -110.1740 257° West 421 484 38,000  Level FlightAware ADS-B
Thu 09:36:52 PM 39.6070 -110.2860 257° West 426 490 38,000  Level FlightAware ADS-B
Thu 09:38:27 PM 39.5650 -110.5190 257° West 417 480 38,000  Level FlightAware ADS-B
Thu 09:39:12 PM 39.5450 -110.6300 257° West 417 480 38,000  Level FlightAware ADS-B
Thu 09:39:52 PM 39.5290 -110.7230 257° West 417 480 38,000  Level FlightAware ADS-B
Thu 09:40:42 PM 39.5070 -110.8390 256° West 417 480 38,000  Level FlightAware ADS-B
Thu 09:41:42 PM 39.4800 -110.9880 257° West 418 481 38,000  Level FlightAware ADS-B
Thu 09:42:27 PM 39.4590 -111.1020 257° West 418 481 38,000  Level FlightAware ADS-B
Thu 09:43:07 PM 39.4400 -111.2030 256° West 419 482 38,000  Level FlightAware ADS-B
Thu 09:43:52 PM 39.4200 -111.3080 256° West 418 481 38,000  Level FlightAware ADS-B
Thu 09:44:32 PM 39.4010 -111.4090 256° West 418 481 38,000  Level FlightAware ADS-B
Thu 09:45:22 PM 39.3810 -111.5160 256° West 419 482 38,000  Level FlightAware ADS-B
Thu 09:46:12 PM 39.3610 -111.6190 256° West 419 482 38,000  Level FlightAware ADS-B
Thu 09:46:52 PM 39.3450 -111.7020 256° West 419 482 38,000  Level FlightAware ADS-B
Thu 09:47:32 PM 39.3290 -111.7840 256° West 419 482 38,000  Level FlightAware ADS-B
Thu 09:48:12 PM 39.3130 -111.8670 256° West 419 482 38,000  Level FlightAware ADS-B
Thu 09:48:52 PM 39.2970 -111.9500 256° West 419 482 38,000  Level FlightAware ADS-B
Thu 09:49:42 PM 39.2770 -112.0530 256° West 419 482 38,000  Level FlightAware ADS-B
Thu 09:50:27 PM 39.2370 -112.2630 256° West 409 471 38,000  Level FlightAware ADS-B
Thu 09:51:02 PM 39.2220 -112.3380 256° West 409 471 38,000  Level FlightAware ADS-B
Thu 09:51:42 PM 39.2070 -112.4190 257° West 409 471 38,000  Level FlightAware ADS-B
Thu 09:52:22 PM 39.1910 -112.4990 256° West 409 471 38,000  Level FlightAware ADS-B
Thu 09:53:12 PM 39.1720 -112.6000 256° West 409 471 38,000  Level FlightAware ADS-B
Thu 09:53:52 PM 39.1560 -112.6810 256° West 409 471 38,000  Level FlightAware ADS-B
Thu 09:54:32 PM 39.1410 -112.7610 256° West 409 471 38,000  Level FlightAware ADS-B
Thu 09:55:12 PM 39.1250 -112.8420 256° West 409 471 38,000  Level FlightAware ADS-B
Thu 09:55:52 PM 39.1090 -112.9220 256° West 409 471 38,000  Level FlightAware ADS-B
Thu 09:56:42 PM 39.0900 -113.0230 256° West 409 471 38,000  Level FlightAware ADS-B
Thu 09:57:22 PM 39.0740 -113.1030 256° West 409 471 38,000  Level FlightAware ADS-B
Thu 09:58:02 PM 39.0590 -113.1830 256° West 409 471 38,000  Level FlightAware ADS-B
Thu 09:58:42 PM 39.0430 -113.2640 256° West 409 471 38,000  Level FlightAware ADS-B
Thu 09:59:22 PM 39.0280 -113.3440 256° West 409 471 38,000  Level FlightAware ADS-B
Thu 10:00:12 PM 39.0080 -113.4450 256° West 409 471 38,000  Level FlightAware ADS-B
Thu 10:01:27 PM 39.1844 -113.8533 256° West 407 468 38,000  Level Salt Lake Center
Thu 10:02:29 PM 39.1792 -113.9972 267° West 404 465 38,000  Level Salt Lake Center
Thu 10:03:30 PM 39.1742 -114.1406 267° West 403 464 38,000  Level Salt Lake Center
Thu 10:04:32 PM 39.1686 -114.2828 267° West 400 460 38,000  Level Salt Lake Center
Thu 10:05:33 PM 39.1619 -114.4239 267° West 398 458 38,000  Level Salt Lake Center
Thu 10:06:35 PM 39.1564 -114.5664 267° West 399 459 38,000  Level Salt Lake Center
Thu 10:07:36 PM 39.1481 -114.7400 267° West 405 466 38,000  Level Salt Lake Center
Thu 10:08:38 PM 39.1417 -114.8853 267° West 406 467 38,000  Level Salt Lake Center
Thu 10:09:39 PM 39.1350 -115.0314 267° West 409 471 38,000  Level Salt Lake Center
Thu 10:10:41 PM 39.1272 -115.1778 266° West 412 474 38,000  Level Salt Lake Center
Thu 10:11:42 PM 39.1206 -115.3203 267° West 405 466 38,000  Level Salt Lake Center
Thu 10:12:44 PM 39.1122 -115.4619 266° West 401 461 38,000  Level Salt Lake Center
Thu 10:13:45 PM 39.1056 -115.6036 267° West 398 458 38,000  Level Salt Lake Center
Thu 10:14:47 PM 39.0967 -115.7481 266° West 403 464 38,000  Level Salt Lake Center
Thu 10:15:48 PM 39.0889 -115.9183 267° West 400 460 38,000  Level Salt Lake Center
Thu 10:16:50 PM 39.0806 -116.0586 266° West 397 457 38,000  Level Salt Lake Center
Thu 10:17:52 PM 39.0731 -116.1978 266° West 391 450 38,000  Level Salt Lake Center
Thu 10:18:53 PM 39.0658 -116.3361 266° West 389 448 38,000  Level Salt Lake Center
Thu 10:19:55 PM 39.0564 -116.4764 265° West 394 453 38,000  Level Salt Lake Center
Thu 10:20:56 PM 39.0489 -116.6169 266° West 396 456 38,000  Level Salt Lake Center
Thu 10:21:58 PM 39.0400 -116.7567 265° West 395 455 38,000  Level Salt Lake Center
Thu 10:22:59 PM 39.0328 -116.9244 267° West 393 452 38,000  Level Salt Lake Center
Thu 10:23:28 PM 39.0328 -116.9817 270° West 394 453 38,000 -200 Level Oakland Center
Thu 10:24:29 PM 39.0306 -117.1247 269° West 398 458 37,700 -689 Descending Oakland Center
Thu 10:25:30 PM 39.0269 -117.2639 268° West 393 452 36,600 -976 Descending Oakland Center
Thu 10:26:32 PM 39.0236 -117.4050 268° West 394 453 35,700 -964 Descending Oakland Center
Thu 10:32:02 PM 39.0030 -118.2240 268° West 413 475 30,300 -1,005 Descending FlightAware ADS-B
Thu 10:32:42 PM 39.0010 -118.3240 269° West 410 472 29,500 -565 Descending FlightAware ADS-B
Thu 10:33:27 PM 38.9970 -118.4190 267° West 410 472 29,500  Level FlightAware ADS-B
Thu 10:34:17 PM 38.9920 -118.5220 266° West 410 472 29,500  Level FlightAware ADS-B
Thu 10:34:57 PM 38.9890 -118.6050 267° West 410 472 29,500  Level FlightAware ADS-B
Thu 10:35:37 PM 38.9860 -118.6880 267° West 410 472 29,500  Level FlightAware ADS-B
Thu 10:36:17 PM 38.9820 -118.7710 266° West 410 472 29,500 -3,636 Level FlightAware ADS-B
Thu 10:36:43 PM 39.1258 -118.8667 266° West 419 482 25,500 -3,448 Descending Oakland Center
Thu 10:37:44 PM 39.1881 -118.9875 304° West 404 465 24,500 -1,391 Descending Oakland Center
Thu 10:43:37 PM 39.5850 -119.4840 304° West 354 407 15,900 -1,330 Descending FlightAware ADS-B
Thu 10:44:12 PM 39.6310 -119.5220 328° Northwest 354 407 15,900  Level FlightAware ADS-B
Thu 10:45:02 PM 39.6890 -119.5710 327° Northwest 354 407 15,900  Level FlightAware ADS-B
Thu 10:45:42 PM 39.7360 -119.6110 327° Northwest 354 407 15,900  Level FlightAware ADS-B
Thu 10:46:22 PM 39.7830 -119.6500 327° Northwest 354 407 15,900  Level FlightAware ADS-B
Thu 10:47:02 PM 39.8300 -119.6900 327° Northwest 354 407 15,900 -2,506 Level FlightAware ADS-B
Thu 10:49:12 PM 39.6790 -119.7660 201° Southwest 243 280 8,800 -3,000 Descending FlightAware ADS-B
Thu 10:49:42 PM 39.6400 -119.7660 180° South 235 270 7,900 -1,629 Descending FlightAware ADS-B
Thu 10:50:22 PM 39.5960 -119.7610 175° South 191 220 6,900 -1,714 Descending FlightAware ADS-B
Thu 10:50:52 PM 39.5730 -119.7660 190° South 175 201 5,900 -1,543 Descending FlightAware ADS-B
Thu 10:51:32 PM 39.5470 -119.7670 182° South 170 196 5,100 -738 Descending FlightAware ADS-B
Thu 10:51:57 PM 39.5300 -119.7670 180° South 170 196 5,100  Level FlightAware ADS-B

Login

Don't have an account? Register now (free) for customized features, flight alerts, and more!